sensor_id;sensor_type;location;lat;lon;timestamp;pressure;altitude;pressure_sealevel;temperature;humidity
61769;BME280;47669;48.712;9.016;2023-07-20T00:01:58;96491.72;;;17.44;57.23
61769;BME280;47669;48.712;9.016;2023-07-20T00:04:23;96495.00;;;17.51;56.71
61769;BME280;47669;48.712;9.016;2023-07-20T00:06:49;96504.94;;;17.28;57.27
61769;BME280;47669;48.712;9.016;2023-07-20T00:09:14;96494.56;;;17.32;56.95
61769;BME280;47669;48.712;9.016;2023-07-20T00:11:39;96492.66;;;17.27;56.76
61769;BME280;47669;48.712;9.016;2023-07-20T00:14:05;96501.72;;;17.26;56.84
61769;BME280;47669;48.712;9.016;2023-07-20T00:16:31;96500.56;;;16.85;59.55
61769;BME280;47669;48.712;9.016;2023-07-20T00:18:56;96504.34;;;16.89;60.03
61769;BME280;47669;48.712;9.016;2023-07-20T00:21:22;96503.19;;;17.12;59.13
61769;BME280;47669;48.712;9.016;2023-07-20T00:23:47;96510.47;;;16.89;59.52
61769;BME280;47669;48.712;9.016;2023-07-20T00:26:12;96509.19;;;16.97;56.03
61769;BME280;47669;48.712;9.016;2023-07-20T00:28:38;96503.69;;;17.04;55.32
61769;BME280;47669;48.712;9.016;2023-07-20T00:31:04;96500.25;;;17.08;55.22
61769;BME280;47669;48.712;9.016;2023-07-20T00:33:29;96498.34;;;17.04;56.46
61769;BME280;47669;48.712;9.016;2023-07-20T00:35:55;96499.53;;;16.91;56.29
61769;BME280;47669;48.712;9.016;2023-07-20T00:38:20;96502.50;;;16.95;56.48
61769;BME280;47669;48.712;9.016;2023-07-20T00:40:46;96509.41;;;16.46;59.35
61769;BME280;47669;48.712;9.016;2023-07-20T00:43:11;96507.75;;;16.62;58.41
61769;BME280;47669;48.712;9.016;2023-07-20T00:45:36;96504.72;;;16.54;58.26
61769;BME280;47669;48.712;9.016;2023-07-20T00:48:04;96503.16;;;16.36;59.62
61769;BME280;47669;48.712;9.016;2023-07-20T00:50:30;96508.25;;;16.15;60.41
61769;BME280;47669;48.712;9.016;2023-07-20T00:52:56;96511.97;;;16.14;61.06
61769;BME280;47669;48.712;9.016;2023-07-20T00:55:23;96505.69;;;16.03;61.65
61769;BME280;47669;48.712;9.016;2023-07-20T00:57:49;96511.75;;;15.99;61.94
61769;BME280;47669;48.712;9.016;2023-07-20T01:00:15;96508.31;;;15.81;63.07
61769;BME280;47669;48.712;9.016;2023-07-20T01:02:40;96520.81;;;15.64;63.93
61769;BME280;47669;48.712;9.016;2023-07-20T01:05:06;96517.16;;;15.70;63.27
61769;BME280;47669;48.712;9.016;2023-07-20T01:07:37;96518.81;;;15.37;64.59
61769;BME280;47669;48.712;9.016;2023-07-20T01:10:29;96520.50;;;15.43;64.41
61769;BME280;47669;48.712;9.016;2023-07-20T01:12:57;96515.25;;;15.48;64.04
61769;BME280;47669;48.712;9.016;2023-07-20T01:15:22;96508.94;;;15.55;63.54
61769;BME280;47669;48.712;9.016;2023-07-20T01:17:48;96509.75;;;15.38;64.57
61769;BME280;47669;48.712;9.016;2023-07-20T01:20:14;96513.13;;;15.34;64.62
61769;BME280;47669;48.712;9.016;2023-07-20T01:31:18;96520.19;;;14.94;66.45
61769;BME280;47669;48.712;9.016;2023-07-20T01:33:46;96509.91;;;15.32;64.51
61769;BME280;47669;48.712;9.016;2023-07-20T01:36:13;96511.25;;;15.00;66.54
61769;BME280;47669;48.712;9.016;2023-07-20T01:38:40;96503.63;;;15.38;62.09
61769;BME280;47669;48.712;9.016;2023-07-20T01:41:06;96500.22;;;15.42;63.77
61769;BME280;47669;48.712;9.016;2023-07-20T01:43:31;96506.31;;;15.72;62.70
61769;BME280;47669;48.712;9.016;2023-07-20T01:45:56;96498.22;;;15.66;61.00
61769;BME280;47669;48.712;9.016;2023-07-20T01:48:22;96501.31;;;15.75;60.94
61769;BME280;47669;48.712;9.016;2023-07-20T01:50:47;96501.78;;;15.72;61.30
61769;BME280;47669;48.712;9.016;2023-07-20T01:53:13;96503.22;;;15.80;61.55
61769;BME280;47669;48.712;9.016;2023-07-20T01:55:38;96503.63;;;15.72;60.69
61769;BME280;47669;48.712;9.016;2023-07-20T01:58:03;96492.16;;;15.54;60.92
61769;BME280;47669;48.712;9.016;2023-07-20T02:00:29;96498.47;;;15.48;62.46
61769;BME280;47669;48.712;9.016;2023-07-20T02:02:54;96504.69;;;15.37;61.17
61769;BME280;47669;48.712;9.016;2023-07-20T02:05:20;96508.47;;;15.58;61.86
61769;BME280;47669;48.712;9.016;2023-07-20T02:07:45;96513.16;;;15.51;62.29
61769;BME280;47669;48.712;9.016;2023-07-20T02:10:10;96510.59;;;15.39;63.21
61769;BME280;47669;48.712;9.016;2023-07-20T02:12:36;96513.28;;;15.10;64.11
61769;BME280;47669;48.712;9.016;2023-07-20T02:15:02;96503.28;;;15.34;62.94
61769;BME280;47669;48.712;9.016;2023-07-20T02:17:28;96507.84;;;14.88;65.02
61769;BME280;47669;48.712;9.016;2023-07-20T02:19:53;96506.97;;;14.71;66.13
61769;BME280;47669;48.712;9.016;2023-07-20T02:22:20;96504.38;;;14.88;64.90
61769;BME280;47669;48.712;9.016;2023-07-20T02:24:45;96510.78;;;14.75;66.20
61769;BME280;47669;48.712;9.016;2023-07-20T02:27:11;96508.81;;;14.41;67.82
61769;BME280;47669;48.712;9.016;2023-07-20T02:29:36;96510.19;;;14.44;67.43
61769;BME280;47669;48.712;9.016;2023-07-20T02:32:02;96507.19;;;14.40;68.24
61769;BME280;47669;48.712;9.016;2023-07-20T02:34:27;96513.38;;;14.05;69.40
61769;BME280;47669;48.712;9.016;2023-07-20T02:36:52;96508.16;;;14.22;68.81
61769;BME280;47669;48.712;9.016;2023-07-20T02:39:18;96512.50;;;14.40;67.20
61769;BME280;47669;48.712;9.016;2023-07-20T02:41:43;96514.16;;;14.18;68.12
61769;BME280;47669;48.712;9.016;2023-07-20T02:44:08;96511.38;;;14.24;66.92
61769;BME280;47669;48.712;9.016;2023-07-20T02:46:33;96516.81;;;14.18;66.56
61769;BME280;47669;48.712;9.016;2023-07-20T02:49:00;96528.28;;;14.18;68.27
61769;BME280;47669;48.712;9.016;2023-07-20T02:51:26;96525.03;;;14.04;68.80
61769;BME280;47669;48.712;9.016;2023-07-20T02:53:51;96531.84;;;14.00;69.77
61769;BME280;47669;48.712;9.016;2023-07-20T02:56:16;96528.72;;;13.80;69.21
61769;BME280;47669;48.712;9.016;2023-07-20T02:58:43;96537.63;;;13.85;68.56
61769;BME280;47669;48.712;9.016;2023-07-20T03:01:09;96526.66;;;13.94;68.21
61769;BME280;47669;48.712;9.016;2023-07-20T03:03:36;96525.50;;;13.90;69.93
61769;BME280;47669;48.712;9.016;2023-07-20T03:06:04;96526.91;;;13.80;70.10
61769;BME280;47669;48.712;9.016;2023-07-20T03:08:29;96526.91;;;14.04;69.38
61769;BME280;47669;48.712;9.016;2023-07-20T03:10:55;96527.13;;;13.67;71.27
61769;BME280;47669;48.712;9.016;2023-07-20T03:13:20;96528.41;;;13.64;70.98
61769;BME280;47669;48.712;9.016;2023-07-20T03:15:45;96530.25;;;13.64;70.76
61769;BME280;47669;48.712;9.016;2023-07-20T03:18:11;96528.84;;;13.50;72.48
61769;BME280;47669;48.712;9.016;2023-07-20T03:20:36;96533.38;;;13.61;70.56
61769;BME280;47669;48.712;9.016;2023-07-20T03:23:02;96532.94;;;13.76;70.57
61769;BME280;47669;48.712;9.016;2023-07-20T03:25:27;96538.31;;;13.46;70.98
61769;BME280;47669;48.712;9.016;2023-07-20T03:27:52;96534.97;;;13.62;71.12
61769;BME280;47669;48.712;9.016;2023-07-20T03:30:18;96534.25;;;13.43;72.78
61769;BME280;47669;48.712;9.016;2023-07-20T03:32:43;96535.31;;;13.42;72.00
61769;BME280;47669;48.712;9.016;2023-07-20T03:35:08;96540.03;;;13.40;71.41
61769;BME280;47669;48.712;9.016;2023-07-20T03:37:34;96531.03;;;13.41;71.26
61769;BME280;47669;48.712;9.016;2023-07-20T03:40:02;96534.41;;;13.60;71.25
61769;BME280;47669;48.712;9.016;2023-07-20T03:42:28;96531.72;;;13.36;72.41
61769;BME280;47669;48.712;9.016;2023-07-20T03:44:53;96537.75;;;13.13;73.75
61769;BME280;47669;48.712;9.016;2023-07-20T03:47:18;96536.38;;;13.11;74.23
61769;BME280;47669;48.712;9.016;2023-07-20T03:49:43;96535.56;;;13.10;73.73
61769;BME280;47669;48.712;9.016;2023-07-20T03:52:09;96535.19;;;13.07;74.39
61769;BME280;47669;48.712;9.016;2023-07-20T03:54:34;96537.78;;;13.25;73.12
61769;BME280;47669;48.712;9.016;2023-07-20T03:56:59;96538.31;;;13.46;71.87
61769;BME280;47669;48.712;9.016;2023-07-20T03:59:26;96542.34;;;13.48;73.11
61769;BME280;47669;48.712;9.016;2023-07-20T04:01:51;96555.59;;;13.36;73.13
61769;BME280;47669;48.712;9.016;2023-07-20T04:04:16;96557.38;;;13.66;72.50
61769;BME280;47669;48.712;9.016;2023-07-20T04:06:42;96559.13;;;14.08;71.98
61769;BME280;47669;48.712;9.016;2023-07-20T04:09:11;96547.97;;;14.46;69.66
61769;BME280;47669;48.712;9.016;2023-07-20T04:11:36;96553.16;;;14.41;69.54
61769;BME280;47669;48.712;9.016;2023-07-20T04:14:01;96547.38;;;14.56;69.81
61769;BME280;47669;48.712;9.016;2023-07-20T04:16:27;96550.03;;;14.56;69.57
61769;BME280;47669;48.712;9.016;2023-07-20T04:18:55;96556.19;;;14.44;70.80
61769;BME280;47669;48.712;9.016;2023-07-20T04:21:20;96558.94;;;14.50;69.45
61769;BME280;47669;48.712;9.016;2023-07-20T04:23:45;96561.50;;;14.33;71.44
61769;BME280;47669;48.712;9.016;2023-07-20T04:26:11;96558.56;;;14.70;69.23
61769;BME280;47669;48.712;9.016;2023-07-20T04:28:38;96562.22;;;14.92;69.34
61769;BME280;47669;48.712;9.016;2023-07-20T04:31:10;96558.22;;;15.23;68.19
61769;BME280;47669;48.712;9.016;2023-07-20T04:33:36;96557.84;;;14.86;69.41
61769;BME280;47669;48.712;9.016;2023-07-20T04:36:02;96553.81;;;15.00;67.50
61769;BME280;47669;48.712;9.016;2023-07-20T04:38:28;96551.66;;;14.97;69.44
61769;BME280;47669;48.712;9.016;2023-07-20T04:40:53;96560.06;;;15.06;68.76
61769;BME280;47669;48.712;9.016;2023-07-20T04:43:18;96555.91;;;14.98;70.18
61769;BME280;47669;48.712;9.016;2023-07-20T04:45:43;96559.28;;;14.94;71.51
61769;BME280;47669;48.712;9.016;2023-07-20T04:48:10;96552.31;;;15.04;72.04
61769;BME280;47669;48.712;9.016;2023-07-20T04:50:43;96554.19;;;15.21;69.56
61769;BME280;47669;48.712;9.016;2023-07-20T04:53:09;96560.03;;;15.35;68.13
61769;BME280;47669;48.712;9.016;2023-07-20T04:55:35;96555.09;;;15.26;69.31
61769;BME280;47669;48.712;9.016;2023-07-20T04:58:02;96553.81;;;15.29;69.58
61769;BME280;47669;48.712;9.016;2023-07-20T05:00:28;96559.34;;;15.11;69.39
61769;BME280;47669;48.712;9.016;2023-07-20T05:02:54;96558.59;;;15.44;69.04
61769;BME280;47669;48.712;9.016;2023-07-20T05:05:19;96566.56;;;15.27;72.11
61769;BME280;47669;48.712;9.016;2023-07-20T05:07:44;96565.44;;;15.40;69.19
61769;BME280;47669;48.712;9.016;2023-07-20T05:10:10;96556.25;;;15.47;68.23
61769;BME280;47669;48.712;9.016;2023-07-20T05:12:35;96547.31;;;15.54;69.72
61769;BME280;47669;48.712;9.016;2023-07-20T05:15:00;96553.03;;;15.62;66.79
61769;BME280;47669;48.712;9.016;2023-07-20T05:17:25;96555.72;;;15.79;66.37
61769;BME280;47669;48.712;9.016;2023-07-20T05:19:51;96560.38;;;15.72;68.29
61769;BME280;47669;48.712;9.016;2023-07-20T05:22:16;96551.59;;;15.88;69.46
61769;BME280;47669;48.712;9.016;2023-07-20T05:24:42;96554.00;;;15.90;64.63
61769;BME280;47669;48.712;9.016;2023-07-20T05:27:07;96557.75;;;16.28;65.92
61769;BME280;47669;48.712;9.016;2023-07-20T05:29:32;96558.34;;;16.13;64.16
61769;BME280;47669;48.712;9.016;2023-07-20T05:31:58;96553.34;;;16.39;64.79
61769;BME280;47669;48.712;9.016;2023-07-20T05:34:23;96555.84;;;16.45;64.64
61769;BME280;47669;48.712;9.016;2023-07-20T05:36:48;96547.88;;;16.51;62.55
61769;BME280;47669;48.712;9.016;2023-07-20T05:39:16;96549.44;;;16.46;61.63
61769;BME280;47669;48.712;9.016;2023-07-20T05:41:42;96543.22;;;16.63;61.87
61769;BME280;47669;48.712;9.016;2023-07-20T05:44:07;96542.44;;;16.62;61.93
61769;BME280;47669;48.712;9.016;2023-07-20T05:46:32;96547.22;;;16.60;61.01
61769;BME280;47669;48.712;9.016;2023-07-20T05:48:57;96544.47;;;16.77;61.83
61769;BME280;47669;48.712;9.016;2023-07-20T05:51:23;96545.50;;;16.76;61.49
61769;BME280;47669;48.712;9.016;2023-07-20T05:53:48;96544.31;;;16.84;61.99
61769;BME280;47669;48.712;9.016;2023-07-20T05:56:13;96546.78;;;16.91;60.97
61769;BME280;47669;48.712;9.016;2023-07-20T05:58:39;96546.50;;;16.87;61.16
61769;BME280;47669;48.712;9.016;2023-07-20T06:01:04;96543.91;;;16.97;61.34
61769;BME280;47669;48.712;9.016;2023-07-20T06:03:32;96546.81;;;17.23;61.23
61769;BME280;47669;48.712;9.016;2023-07-20T06:06:02;96549.44;;;17.18;60.66
61769;BME280;47669;48.712;9.016;2023-07-20T06:08:29;96556.50;;;16.80;61.05
61769;BME280;47669;48.712;9.016;2023-07-20T06:10:55;96558.78;;;17.15;60.48
61769;BME280;47669;48.712;9.016;2023-07-20T06:13:20;96557.44;;;17.13;61.03
61769;BME280;47669;48.712;9.016;2023-07-20T06:15:45;96561.13;;;17.12;60.66
61769;BME280;47669;48.712;9.016;2023-07-20T06:18:11;96558.06;;;17.25;60.62
61769;BME280;47669;48.712;9.016;2023-07-20T06:20:36;96559.69;;;17.26;61.95
61769;BME280;47669;48.712;9.016;2023-07-20T06:23:01;96563.81;;;17.39;61.15
61769;BME280;47669;48.712;9.016;2023-07-20T06:25:27;96562.09;;;17.55;59.81
61769;BME280;47669;48.712;9.016;2023-07-20T06:27:52;96552.91;;;17.45;59.49
61769;BME280;47669;48.712;9.016;2023-07-20T06:30:18;96553.94;;;17.72;59.78
61769;BME280;47669;48.712;9.016;2023-07-20T06:32:43;96556.19;;;17.53;59.27
61769;BME280;47669;48.712;9.016;2023-07-20T06:35:08;96555.78;;;17.71;59.54
61769;BME280;47669;48.712;9.016;2023-07-20T06:37:34;96549.34;;;17.67;57.98
61769;BME280;47669;48.712;9.016;2023-07-20T06:40:01;96545.19;;;17.81;57.91
61769;BME280;47669;48.712;9.016;2023-07-20T06:42:26;96549.94;;;18.11;58.80
61769;BME280;47669;48.712;9.016;2023-07-20T06:44:52;96553.28;;;18.29;57.00
61769;BME280;47669;48.712;9.016;2023-07-20T06:47:17;96553.06;;;17.98;57.22
61769;BME280;47669;48.712;9.016;2023-07-20T06:49:42;96563.03;;;18.08;58.43
61769;BME280;47669;48.712;9.016;2023-07-20T06:52:07;96560.75;;;18.32;57.35
61769;BME280;47669;48.712;9.016;2023-07-20T06:54:33;96568.31;;;18.40;56.79
61769;BME280;47669;48.712;9.016;2023-07-20T06:56:58;96561.56;;;18.27;56.09
61769;BME280;47669;48.712;9.016;2023-07-20T06:59:23;96551.56;;;18.70;56.70
61769;BME280;47669;48.712;9.016;2023-07-20T07:01:49;96554.28;;;18.76;56.10
61769;BME280;47669;48.712;9.016;2023-07-20T07:04:14;96557.47;;;18.67;56.19
61769;BME280;47669;48.712;9.016;2023-07-20T07:06:40;96546.03;;;18.82;54.89
61769;BME280;47669;48.712;9.016;2023-07-20T07:09:05;96547.72;;;19.14;54.39
61769;BME280;47669;48.712;9.016;2023-07-20T07:11:31;96545.25;;;19.02;54.66
61769;BME280;47669;48.712;9.016;2023-07-20T07:13:56;96543.69;;;19.22;53.90
61769;BME280;47669;48.712;9.016;2023-07-20T07:16:21;96542.63;;;19.18;54.41
61769;BME280;47669;48.712;9.016;2023-07-20T07:18:47;96540.69;;;18.82;55.11
61769;BME280;47669;48.712;9.016;2023-07-20T07:21:12;96541.19;;;18.79;55.14
61769;BME280;47669;48.712;9.016;2023-07-20T07:23:38;96535.44;;;18.50;55.19
61769;BME280;47669;48.712;9.016;2023-07-20T07:26:04;96549.19;;;18.74;55.13
61769;BME280;47669;48.712;9.016;2023-07-20T07:28:29;96538.25;;;18.81;55.59
61769;BME280;47669;48.712;9.016;2023-07-20T07:30:55;96534.88;;;19.37;53.96
61769;BME280;47669;48.712;9.016;2023-07-20T07:33:21;96529.75;;;19.04;54.99
61769;BME280;47669;48.712;9.016;2023-07-20T07:35:47;96533.28;;;19.77;54.23
61769;BME280;47669;48.712;9.016;2023-07-20T07:38:12;96539.44;;;19.67;53.22
61769;BME280;47669;48.712;9.016;2023-07-20T07:40:37;96525.50;;;19.85;53.72
61769;BME280;47669;48.712;9.016;2023-07-20T07:43:03;96537.53;;;19.21;53.51
61769;BME280;47669;48.712;9.016;2023-07-20T07:45:28;96541.03;;;19.42;54.03
61769;BME280;47669;48.712;9.016;2023-07-20T07:47:53;96540.50;;;19.25;54.16
61769;BME280;47669;48.712;9.016;2023-07-20T07:50:19;96527.63;;;19.93;52.69
61769;BME280;47669;48.712;9.016;2023-07-20T07:52:44;96522.63;;;20.57;51.79
61769;BME280;47669;48.712;9.016;2023-07-20T07:55:09;96527.81;;;20.33;51.15
61769;BME280;47669;48.712;9.016;2023-07-20T07:57:35;96524.16;;;19.67;51.44
61769;BME280;47669;48.712;9.016;2023-07-20T08:00:00;96528.44;;;20.09;53.52
61769;BME280;47669;48.712;9.016;2023-07-20T08:02:25;96532.19;;;20.03;49.90
61769;BME280;47669;48.712;9.016;2023-07-20T08:04:51;96524.44;;;19.97;49.32
61769;BME280;47669;48.712;9.016;2023-07-20T08:07:17;96523.38;;;19.72;51.84
61769;BME280;47669;48.712;9.016;2023-07-20T08:09:42;96526.41;;;20.66;52.69
61769;BME280;47669;48.712;9.016;2023-07-20T08:12:08;96522.81;;;20.01;48.03
61769;BME280;47669;48.712;9.016;2023-07-20T08:14:33;96523.88;;;20.10;50.09
61769;BME280;47669;48.712;9.016;2023-07-20T08:16:58;96520.94;;;19.55;51.06
61769;BME280;47669;48.712;9.016;2023-07-20T08:19:24;96525.75;;;19.27;52.44
61769;BME280;47669;48.712;9.016;2023-07-20T08:21:49;96515.66;;;20.61;49.42
61769;BME280;47669;48.712;9.016;2023-07-20T08:24:14;96520.59;;;20.28;49.22
61769;BME280;47669;48.712;9.016;2023-07-20T08:26:40;96521.03;;;20.56;50.55
61769;BME280;47669;48.712;9.016;2023-07-20T08:29:05;96523.03;;;20.20;50.23
61769;BME280;47669;48.712;9.016;2023-07-20T08:31:30;96520.66;;;19.87;50.93
61769;BME280;47669;48.712;9.016;2023-07-20T08:33:55;96525.25;;;19.66;49.93
61769;BME280;47669;48.712;9.016;2023-07-20T08:36:22;96529.81;;;19.45;50.77
61769;BME280;47669;48.712;9.016;2023-07-20T08:38:47;96532.22;;;19.52;52.85
61769;BME280;47669;48.712;9.016;2023-07-20T08:41:14;96522.03;;;19.80;52.19
61769;BME280;47669;48.712;9.016;2023-07-20T08:43:42;96520.53;;;20.49;50.25
61769;BME280;47669;48.712;9.016;2023-07-20T08:46:10;96521.41;;;20.94;49.83
61769;BME280;47669;48.712;9.016;2023-07-20T08:48:36;96518.94;;;20.38;48.48
61769;BME280;47669;48.712;9.016;2023-07-20T08:51:02;96516.84;;;20.94;50.58
61769;BME280;47669;48.712;9.016;2023-07-20T08:53:29;96525.47;;;20.16;49.67
61769;BME280;47669;48.712;9.016;2023-07-20T08:55:57;96519.53;;;20.19;48.82
61769;BME280;47669;48.712;9.016;2023-07-20T08:58:25;96510.47;;;20.85;49.48
61769;BME280;47669;48.712;9.016;2023-07-20T09:00:52;96510.63;;;21.44;45.72
61769;BME280;47669;48.712;9.016;2023-07-20T09:03:18;96512.69;;;21.86;44.47
61769;BME280;47669;48.712;9.016;2023-07-20T09:05:44;96516.41;;;21.61;44.00
61769;BME280;47669;48.712;9.016;2023-07-20T09:08:10;96494.41;;;22.36;41.84
61769;BME280;47669;48.712;9.016;2023-07-20T09:10:35;96510.63;;;21.04;45.13
61769;BME280;47669;48.712;9.016;2023-07-20T09:13:01;96506.09;;;21.00;45.91
61769;BME280;47669;48.712;9.016;2023-07-20T09:15:26;96501.94;;;20.68;44.36
61769;BME280;47669;48.712;9.016;2023-07-20T09:17:52;96503.66;;;20.38;44.65
61769;BME280;47669;48.712;9.016;2023-07-20T09:20:19;96510.63;;;20.39;44.46
61769;BME280;47669;48.712;9.016;2023-07-20T09:22:46;96505.53;;;20.38;44.55
61769;BME280;47669;48.712;9.016;2023-07-20T09:25:12;96513.50;;;20.63;45.04
61769;BME280;47669;48.712;9.016;2023-07-20T09:27:40;96502.38;;;20.20;44.75
61769;BME280;47669;48.712;9.016;2023-07-20T09:30:07;96508.16;;;20.53;45.60
61769;BME280;47669;48.712;9.016;2023-07-20T09:32:38;96510.44;;;20.20;44.61
61769;BME280;47669;48.712;9.016;2023-07-20T09:35:04;96515.69;;;20.46;45.05
61769;BME280;47669;48.712;9.016;2023-07-20T09:37:33;96509.50;;;21.10;44.32
61769;BME280;47669;48.712;9.016;2023-07-20T09:39:58;96506.66;;;22.00;41.59
61769;BME280;47669;48.712;9.016;2023-07-20T09:42:24;96506.19;;;22.46;41.99
61769;BME280;47669;48.712;9.016;2023-07-20T09:44:51;96500.41;;;22.95;42.15
61769;BME280;47669;48.712;9.016;2023-07-20T09:47:23;96498.84;;;22.22;40.10
61769;BME280;47669;48.712;9.016;2023-07-20T09:49:49;96496.44;;;22.69;39.08
61769;BME280;47669;48.712;9.016;2023-07-20T09:52:14;96502.19;;;22.62;40.96
61769;BME280;47669;48.712;9.016;2023-07-20T09:54:40;96493.72;;;22.50;41.21
61769;BME280;47669;48.712;9.016;2023-07-20T09:57:09;96489.69;;;21.35;39.51
61769;BME280;47669;48.712;9.016;2023-07-20T09:59:37;96499.09;;;21.72;40.71
61769;BME280;47669;48.712;9.016;2023-07-20T10:02:07;96503.44;;;21.34;42.35
61769;BME280;47669;48.712;9.016;2023-07-20T10:04:36;96500.59;;;21.15;42.60
61769;BME280;47669;48.712;9.016;2023-07-20T10:07:05;96498.41;;;20.78;43.44
61769;BME280;47669;48.712;9.016;2023-07-20T10:09:36;96508.72;;;21.05;43.64
61769;BME280;47669;48.712;9.016;2023-07-20T10:12:04;96500.59;;;21.54;45.30
61769;BME280;47669;48.712;9.016;2023-07-20T10:14:30;96494.56;;;22.45;42.30
61769;BME280;47669;48.712;9.016;2023-07-20T10:17:01;96494.72;;;22.78;38.21
61769;BME280;47669;48.712;9.016;2023-07-20T10:19:42;96486.94;;;23.14;38.71
61769;BME280;47669;48.712;9.016;2023-07-20T10:22:14;96478.13;;;23.09;37.81
61769;BME280;47669;48.712;9.016;2023-07-20T10:24:45;96475.31;;;23.85;38.46
61769;BME280;47669;48.712;9.016;2023-07-20T10:27:10;96468.50;;;23.87;36.31
61769;BME280;47669;48.712;9.016;2023-07-20T10:29:36;96473.66;;;23.37;36.97
61769;BME280;47669;48.712;9.016;2023-07-20T10:32:02;96457.97;;;23.72;38.26
61769;BME280;47669;48.712;9.016;2023-07-20T10:34:28;96456.84;;;23.59;36.72
61769;BME280;47669;48.712;9.016;2023-07-20T10:36:54;96450.22;;;23.98;37.38
61769;BME280;47669;48.712;9.016;2023-07-20T10:39:27;96455.22;;;24.46;36.14
61769;BME280;47669;48.712;9.016;2023-07-20T10:42:11;96449.22;;;23.47;37.66
61769;BME280;47669;48.712;9.016;2023-07-20T10:44:37;96464.13;;;22.02;39.33
61769;BME280;47669;48.712;9.016;2023-07-20T10:47:08;96456.66;;;22.17;37.88
61769;BME280;47669;48.712;9.016;2023-07-20T10:49:34;96450.16;;;23.56;36.01
61769;BME280;47669;48.712;9.016;2023-07-20T10:52:04;96453.75;;;23.52;35.64
61769;BME280;47669;48.712;9.016;2023-07-20T10:56:56;96441.53;;;24.43;36.47
61769;BME280;47669;48.712;9.016;2023-07-20T11:01:54;96427.81;;;24.39;33.65
61769;BME280;47669;48.712;9.016;2023-07-20T11:07:02;96437.41;;;24.31;36.00
61769;BME280;47669;48.712;9.016;2023-07-20T11:09:33;96441.66;;;22.11;36.19
61769;BME280;47669;48.712;9.016;2023-07-20T11:12:17;96450.25;;;23.32;36.30
61769;BME280;47669;48.712;9.016;2023-07-20T11:14:43;96432.72;;;24.51;35.80
61769;BME280;47669;48.712;9.016;2023-07-20T11:17:15;96434.09;;;24.48;36.64
61769;BME280;47669;48.712;9.016;2023-07-20T11:19:48;96419.50;;;25.22;35.44
61769;BME280;47669;48.712;9.016;2023-07-20T11:22:16;96434.84;;;24.90;32.82
61769;BME280;47669;48.712;9.016;2023-07-20T11:24:42;96435.56;;;24.82;34.56
61769;BME280;47669;48.712;9.016;2023-07-20T11:27:08;96436.44;;;24.00;32.83
61769;BME280;47669;48.712;9.016;2023-07-20T11:29:34;96423.72;;;23.40;36.47
61769;BME280;47669;48.712;9.016;2023-07-20T11:32:01;96427.13;;;23.78;34.94
61769;BME280;47669;48.712;9.016;2023-07-20T11:34:30;96419.97;;;24.79;33.62
61769;BME280;47669;48.712;9.016;2023-07-20T11:36:55;96418.69;;;24.99;32.15
61769;BME280;47669;48.712;9.016;2023-07-20T11:39:22;96420.34;;;24.50;31.77
61769;BME280;47669;48.712;9.016;2023-07-20T11:41:55;96410.19;;;25.14;32.42
61769;BME280;47669;48.712;9.016;2023-07-20T11:44:24;96426.16;;;24.79;32.99
61769;BME280;47669;48.712;9.016;2023-07-20T11:47:01;96416.59;;;23.30;34.53
61769;BME280;47669;48.712;9.016;2023-07-20T11:49:28;96424.16;;;22.95;33.68
61769;BME280;47669;48.712;9.016;2023-07-20T11:51:54;96423.78;;;22.83;36.01
61769;BME280;47669;48.712;9.016;2023-07-20T11:54:20;96414.28;;;23.56;32.60
61769;BME280;47669;48.712;9.016;2023-07-20T11:56:45;96410.97;;;23.92;33.03
61769;BME280;47669;48.712;9.016;2023-07-20T11:59:11;96416.50;;;23.68;33.86
61769;BME280;47669;48.712;9.016;2023-07-20T12:01:36;96408.94;;;23.84;32.95
61769;BME280;47669;48.712;9.016;2023-07-20T12:04:05;96402.69;;;24.66;32.61
61769;BME280;47669;48.712;9.016;2023-07-20T12:06:32;96402.00;;;25.42;32.58
61769;BME280;47669;48.712;9.016;2023-07-20T12:08:58;96397.13;;;25.08;31.84
61769;BME280;47669;48.712;9.016;2023-07-20T12:11:37;96393.41;;;26.20;31.89
61769;BME280;47669;48.712;9.016;2023-07-20T12:14:04;96399.34;;;25.28;31.48
61769;BME280;47669;48.712;9.016;2023-07-20T12:16:31;96403.09;;;25.41;32.43
61769;BME280;47669;48.712;9.016;2023-07-20T12:19:05;96395.34;;;25.88;32.11
61769;BME280;47669;48.712;9.016;2023-07-20T12:21:31;96385.75;;;26.22;30.84
61769;BME280;47669;48.712;9.016;2023-07-20T12:23:58;96388.47;;;24.74;30.80
61769;BME280;47669;48.712;9.016;2023-07-20T12:26:24;96382.53;;;25.71;31.75
61769;BME280;47669;48.712;9.016;2023-07-20T12:28:50;96393.66;;;25.30;31.33
61769;BME280;47669;48.712;9.016;2023-07-20T12:31:16;96387.09;;;25.53;30.80
61769;BME280;47669;48.712;9.016;2023-07-20T12:33:41;96382.06;;;25.15;30.14
61769;BME280;47669;48.712;9.016;2023-07-20T12:36:09;96373.47;;;26.07;31.28
61769;BME280;47669;48.712;9.016;2023-07-20T12:38:34;96373.69;;;25.48;30.83
61769;BME280;47669;48.712;9.016;2023-07-20T12:41:00;96375.66;;;25.25;35.05
61769;BME280;47669;48.712;9.016;2023-07-20T12:43:26;96374.41;;;23.53;34.04
61769;BME280;47669;48.712;9.016;2023-07-20T12:45:52;96359.22;;;24.76;32.32
61769;BME280;47669;48.712;9.016;2023-07-20T12:48:17;96366.53;;;24.26;36.28
61769;BME280;47669;48.712;9.016;2023-07-20T12:50:43;96358.78;;;24.83;30.98
61769;BME280;47669;48.712;9.016;2023-07-20T12:53:08;96357.78;;;26.79;31.27
61769;BME280;47669;48.712;9.016;2023-07-20T12:55:33;96354.38;;;26.21;30.49
61769;BME280;47669;48.712;9.016;2023-07-20T12:57:59;96343.09;;;27.06;27.71
61769;BME280;47669;48.712;9.016;2023-07-20T13:00:24;96352.66;;;26.77;29.26
61769;BME280;47669;48.712;9.016;2023-07-20T13:02:50;96345.50;;;26.81;29.15
61769;BME280;47669;48.712;9.016;2023-07-20T13:05:15;96349.25;;;26.02;28.25
61769;BME280;47669;48.712;9.016;2023-07-20T13:07:41;96351.06;;;25.84;28.48
61769;BME280;47669;48.712;9.016;2023-07-20T13:10:08;96348.84;;;25.86;28.17
61769;BME280;47669;48.712;9.016;2023-07-20T13:12:34;96337.22;;;26.78;28.96